sensor_id;sensor_type;location;lat;lon;timestamp;P1;durP1;ratioP1;P2;durP2;ratioP2
35715;SDS011;21840;44.920;8.616;2022-10-29T00:00:09;29.35;;;18.95;;
35715;SDS011;21840;44.920;8.616;2022-10-29T00:02:34;38.00;;;19.75;;
35715;SDS011;21840;44.920;8.616;2022-10-29T00:05:00;38.97;;;20.67;;
35715;SDS011;21840;44.920;8.616;2022-10-29T00:07:25;32.05;;;20.40;;
35715;SDS011;21840;44.920;8.616;2022-10-29T00:09:51;43.55;;;20.75;;
35715;SDS011;21840;44.920;8.616;2022-10-29T00:12:16;48.35;;;20.45;;
35715;SDS011;21840;44.920;8.616;2022-10-29T00:14:42;34.60;;;21.45;;
35715;SDS011;21840;44.920;8.616;2022-10-29T00:17:07;34.88;;;20.73;;
35715;SDS011;21840;44.920;8.616;2022-10-29T00:19:33;39.83;;;20.98;;
35715;SDS011;21840;44.920;8.616;2022-10-29T00:21:58;37.78;;;17.63;;
35715;SDS011;21840;44.920;8.616;2022-10-29T00:24:23;26.05;;;16.75;;
35715;SDS011;21840;44.920;8.616;2022-10-29T00:26:49;30.63;;;17.20;;
35715;SDS011;21840;44.920;8.616;2022-10-29T00:29:14;29.48;;;17.58;;
35715;SDS011;21840;44.920;8.616;2022-10-29T00:31:40;21.25;;;15.23;;
35715;SDS011;21840;44.920;8.616;2022-10-29T00:34:05;24.25;;;16.13;;
35715;SDS011;21840;44.920;8.616;2022-10-29T00:36:31;23.92;;;16.90;;
35715;SDS011;21840;44.920;8.616;2022-10-29T00:38:56;23.50;;;16.95;;
35715;SDS011;21840;44.920;8.616;2022-10-29T00:41:23;25.23;;;16.75;;
35715;SDS011;21840;44.920;8.616;2022-10-29T00:44:21;28.67;;;16.45;;
35715;SDS011;21840;44.920;8.616;2022-10-29T00:46:44;26.30;;;16.05;;
35715;SDS011;21840;44.920;8.616;2022-10-29T00:49:14;25.90;;;17.60;;
35715;SDS011;21840;44.920;8.616;2022-10-29T00:51:40;21.92;;;14.52;;
35715;SDS011;21840;44.920;8.616;2022-10-29T00:54:08;24.02;;;15.75;;
35715;SDS011;21840;44.920;8.616;2022-10-29T00:56:36;23.65;;;15.60;;
35715;SDS011;21840;44.920;8.616;2022-10-29T00:59:05;28.35;;;16.55;;
35715;SDS011;21840;44.920;8.616;2022-10-29T01:01:33;22.70;;;15.38;;
35715;SDS011;21840;44.920;8.616;2022-10-29T01:03:59;25.60;;;15.50;;
35715;SDS011;21840;44.920;8.616;2022-10-29T01:06:25;22.85;;;15.73;;
35715;SDS011;21840;44.920;8.616;2022-10-29T01:08:54;24.15;;;16.48;;
35715;SDS011;21840;44.920;8.616;2022-10-29T01:11:34;28.25;;;16.52;;
35715;SDS011;21840;44.920;8.616;2022-10-29T01:14:15;26.77;;;16.65;;
35715;SDS011;21840;44.920;8.616;2022-10-29T01:22:04;19.95;;;13.40;;
35715;SDS011;21840;44.920;8.616;2022-10-29T01:27:58;18.25;;;13.10;;
35715;SDS011;21840;44.920;8.616;2022-10-29T01:33:21;19.63;;;14.75;;
35715;SDS011;21840;44.920;8.616;2022-10-29T01:47:14;22.63;;;14.68;;
35715;SDS011;21840;44.920;8.616;2022-10-29T01:49:43;25.35;;;14.82;;
35715;SDS011;21840;44.920;8.616;2022-10-29T01:52:15;25.52;;;14.90;;
35715;SDS011;21840;44.920;8.616;2022-10-29T01:54:43;25.15;;;14.70;;
35715;SDS011;21840;44.920;8.616;2022-10-29T01:57:43;23.30;;;15.55;;
35715;SDS011;21840;44.920;8.616;2022-10-29T02:05:10;25.42;;;16.05;;
35715;SDS011;21840;44.920;8.616;2022-10-29T02:07:48;24.35;;;15.45;;
35715;SDS011;21840;44.920;8.616;2022-10-29T02:10:26;41.10;;;17.25;;
35715;SDS011;21840;44.920;8.616;2022-10-29T02:12:53;62.10;;;16.60;;
35715;SDS011;21840;44.920;8.616;2022-10-29T02:18:00;24.33;;;15.70;;
35715;SDS011;21840;44.920;8.616;2022-10-29T02:20:28;30.00;;;16.35;;
35715;SDS011;21840;44.920;8.616;2022-10-29T02:22:53;24.52;;;15.98;;
35715;SDS011;21840;44.920;8.616;2022-10-29T02:25:19;25.95;;;15.65;;
35715;SDS011;21840;44.920;8.616;2022-10-29T02:27:45;22.67;;;15.20;;
35715;SDS011;21840;44.920;8.616;2022-10-29T02:30:10;26.98;;;16.25;;
35715;SDS011;21840;44.920;8.616;2022-10-29T02:32:36;27.55;;;16.67;;
35715;SDS011;21840;44.920;8.616;2022-10-29T02:35:02;25.98;;;16.85;;
35715;SDS011;21840;44.920;8.616;2022-10-29T02:37:28;27.67;;;16.73;;
35715;SDS011;21840;44.920;8.616;2022-10-29T02:39:54;33.88;;;15.70;;
35715;SDS011;21840;44.920;8.616;2022-10-29T02:42:19;39.70;;;17.08;;
35715;SDS011;21840;44.920;8.616;2022-10-29T02:44:45;33.30;;;15.30;;
35715;SDS011;21840;44.920;8.616;2022-10-29T02:47:10;54.92;;;15.23;;
35715;SDS011;21840;44.920;8.616;2022-10-29T02:49:36;36.00;;;14.13;;
35715;SDS011;21840;44.920;8.616;2022-10-29T02:52:01;27.02;;;13.32;;
35715;SDS011;21840;44.920;8.616;2022-10-29T02:54:27;32.13;;;13.50;;
35715;SDS011;21840;44.920;8.616;2022-10-29T02:56:52;41.95;;;13.50;;
35715;SDS011;21840;44.920;8.616;2022-10-29T02:59:18;61.67;;;14.75;;
35715;SDS011;21840;44.920;8.616;2022-10-29T03:01:43;48.17;;;13.02;;
35715;SDS011;21840;44.920;8.616;2022-10-29T03:04:09;19.45;;;13.90;;
35715;SDS011;21840;44.920;8.616;2022-10-29T03:06:36;19.42;;;13.57;;
35715;SDS011;21840;44.920;8.616;2022-10-29T03:09:02;23.02;;;13.27;;
35715;SDS011;21840;44.920;8.616;2022-10-29T03:11:28;18.90;;;13.60;;
35715;SDS011;21840;44.920;8.616;2022-10-29T03:13:53;21.17;;;14.32;;
35715;SDS011;21840;44.920;8.616;2022-10-29T03:16:19;25.95;;;13.95;;
35715;SDS011;21840;44.920;8.616;2022-10-29T03:18:44;123.72;;;15.63;;
35715;SDS011;21840;44.920;8.616;2022-10-29T03:21:10;72.50;;;15.90;;
35715;SDS011;21840;44.920;8.616;2022-10-29T03:23:35;49.22;;;13.77;;
35715;SDS011;21840;44.920;8.616;2022-10-29T03:26:01;43.80;;;13.75;;
35715;SDS011;21840;44.920;8.616;2022-10-29T03:28:27;26.20;;;15.63;;
35715;SDS011;21840;44.920;8.616;2022-10-29T03:30:52;26.85;;;15.05;;
35715;SDS011;21840;44.920;8.616;2022-10-29T03:33:18;26.23;;;15.80;;
35715;SDS011;21840;44.920;8.616;2022-10-29T03:35:43;23.52;;;15.55;;
35715;SDS011;21840;44.920;8.616;2022-10-29T03:38:09;91.93;;;16.50;;
35715;SDS011;21840;44.920;8.616;2022-10-29T03:40:34;128.57;;;18.52;;
35715;SDS011;21840;44.920;8.616;2022-10-29T03:43:00;169.82;;;18.25;;
35715;SDS011;21840;44.920;8.616;2022-10-29T03:45:25;50.22;;;19.40;;
35715;SDS011;21840;44.920;8.616;2022-10-29T03:47:51;92.43;;;19.83;;
35715;SDS011;21840;44.920;8.616;2022-10-29T03:50:16;94.10;;;18.58;;
35715;SDS011;21840;44.920;8.616;2022-10-29T03:52:42;89.32;;;20.08;;
35715;SDS011;21840;44.920;8.616;2022-10-29T03:55:07;42.55;;;18.30;;
35715;SDS011;21840;44.920;8.616;2022-10-29T03:57:33;45.65;;;17.65;;
35715;SDS011;21840;44.920;8.616;2022-10-29T03:59:58;48.15;;;18.65;;
35715;SDS011;21840;44.920;8.616;2022-10-29T04:02:25;43.30;;;18.30;;
35715;SDS011;21840;44.920;8.616;2022-10-29T04:04:51;73.65;;;18.45;;
35715;SDS011;21840;44.920;8.616;2022-10-29T04:07:16;68.38;;;20.00;;
35715;SDS011;21840;44.920;8.616;2022-10-29T04:09:42;51.08;;;19.08;;
35715;SDS011;21840;44.920;8.616;2022-10-29T04:12:08;56.58;;;18.58;;
35715;SDS011;21840;44.920;8.616;2022-10-29T04:14:33;39.35;;;17.55;;
35715;SDS011;21840;44.920;8.616;2022-10-29T04:16:59;56.08;;;17.75;;
35715;SDS011;21840;44.920;8.616;2022-10-29T04:19:24;45.50;;;18.10;;
35715;SDS011;21840;44.920;8.616;2022-10-29T04:21:50;30.33;;;18.50;;
35715;SDS011;21840;44.920;8.616;2022-10-29T04:24:15;48.13;;;18.00;;
35715;SDS011;21840;44.920;8.616;2022-10-29T04:26:41;46.80;;;17.48;;
35715;SDS011;21840;44.920;8.616;2022-10-29T04:29:07;62.72;;;18.52;;
35715;SDS011;21840;44.920;8.616;2022-10-29T04:31:33;69.47;;;18.10;;
35715;SDS011;21840;44.920;8.616;2022-10-29T04:33:59;41.13;;;18.25;;
35715;SDS011;21840;44.920;8.616;2022-10-29T04:36:24;25.95;;;17.45;;
35715;SDS011;21840;44.920;8.616;2022-10-29T04:38:50;46.35;;;17.35;;
35715;SDS011;21840;44.920;8.616;2022-10-29T04:41:15;29.60;;;16.52;;
35715;SDS011;21840;44.920;8.616;2022-10-29T04:43:41;34.50;;;16.40;;
35715;SDS011;21840;44.920;8.616;2022-10-29T04:46:08;32.63;;;16.60;;
35715;SDS011;21840;44.920;8.616;2022-10-29T04:48:34;22.83;;;16.00;;
35715;SDS011;21840;44.920;8.616;2022-10-29T04:51:00;39.65;;;16.42;;
35715;SDS011;21840;44.920;8.616;2022-10-29T04:53:25;29.02;;;16.00;;
35715;SDS011;21840;44.920;8.616;2022-10-29T04:55:50;26.75;;;16.27;;
35715;SDS011;21840;44.920;8.616;2022-10-29T04:58:22;25.60;;;15.70;;
35715;SDS011;21840;44.920;8.616;2022-10-29T05:00:47;19.25;;;13.75;;
35715;SDS011;21840;44.920;8.616;2022-10-29T05:03:13;22.63;;;14.10;;
35715;SDS011;21840;44.920;8.616;2022-10-29T05:05:39;19.20;;;14.20;;
35715;SDS011;21840;44.920;8.616;2022-10-29T05:08:05;41.33;;;13.38;;
35715;SDS011;21840;44.920;8.616;2022-10-29T05:10:32;22.70;;;13.88;;
35715;SDS011;21840;44.920;8.616;2022-10-29T05:13:00;17.25;;;13.05;;
35715;SDS011;21840;44.920;8.616;2022-10-29T05:15:27;23.77;;;12.40;;
35715;SDS011;21840;44.920;8.616;2022-10-29T05:17:53;22.50;;;14.13;;
35715;SDS011;21840;44.920;8.616;2022-10-29T05:20:20;25.00;;;13.98;;
35715;SDS011;21840;44.920;8.616;2022-10-29T05:22:45;24.35;;;12.52;;
35715;SDS011;21840;44.920;8.616;2022-10-29T05:25:11;26.42;;;13.93;;
35715;SDS011;21840;44.920;8.616;2022-10-29T05:27:37;39.95;;;13.77;;
35715;SDS011;21840;44.920;8.616;2022-10-29T05:30:02;45.08;;;13.13;;
35715;SDS011;21840;44.920;8.616;2022-10-29T05:32:28;24.02;;;12.43;;
35715;SDS011;21840;44.920;8.616;2022-10-29T05:34:54;16.40;;;12.35;;
35715;SDS011;21840;44.920;8.616;2022-10-29T05:37:19;20.00;;;12.65;;
35715;SDS011;21840;44.920;8.616;2022-10-29T05:39:45;24.08;;;13.63;;
35715;SDS011;21840;44.920;8.616;2022-10-29T05:42:10;19.02;;;12.05;;
35715;SDS011;21840;44.920;8.616;2022-10-29T05:44:36;21.77;;;13.95;;
35715;SDS011;21840;44.920;8.616;2022-10-29T05:47:02;20.30;;;13.43;;
35715;SDS011;21840;44.920;8.616;2022-10-29T05:49:27;20.73;;;13.65;;
35715;SDS011;21840;44.920;8.616;2022-10-29T05:51:53;17.75;;;13.27;;
35715;SDS011;21840;44.920;8.616;2022-10-29T05:54:18;24.30;;;13.95;;
35715;SDS011;21840;44.920;8.616;2022-10-29T05:56:44;23.67;;;13.73;;
35715;SDS011;21840;44.920;8.616;2022-10-29T05:59:09;43.85;;;14.13;;
35715;SDS011;21840;44.920;8.616;2022-10-29T06:01:35;60.85;;;14.50;;
35715;SDS011;21840;44.920;8.616;2022-10-29T06:04:00;36.83;;;13.52;;
35715;SDS011;21840;44.920;8.616;2022-10-29T06:06:26;39.35;;;15.93;;
35715;SDS011;21840;44.920;8.616;2022-10-29T06:08:52;38.70;;;15.45;;
35715;SDS011;21840;44.920;8.616;2022-10-29T06:11:17;20.75;;;14.70;;
35715;SDS011;21840;44.920;8.616;2022-10-29T06:13:43;18.73;;;14.32;;
35715;SDS011;21840;44.920;8.616;2022-10-29T06:16:08;16.98;;;13.13;;
35715;SDS011;21840;44.920;8.616;2022-10-29T06:18:34;16.92;;;13.18;;
35715;SDS011;21840;44.920;8.616;2022-10-29T06:20:59;36.40;;;14.68;;
35715;SDS011;21840;44.920;8.616;2022-10-29T06:23:26;19.70;;;13.15;;
35715;SDS011;21840;44.920;8.616;2022-10-29T06:25:52;18.33;;;13.90;;
35715;SDS011;21840;44.920;8.616;2022-10-29T06:28:17;18.35;;;12.80;;
35715;SDS011;21840;44.920;8.616;2022-10-29T06:30:47;20.25;;;14.35;;
35715;SDS011;21840;44.920;8.616;2022-10-29T06:33:14;18.65;;;14.15;;
35715;SDS011;21840;44.920;8.616;2022-10-29T06:35:41;18.05;;;13.55;;
35715;SDS011;21840;44.920;8.616;2022-10-29T06:38:06;15.00;;;12.98;;
35715;SDS011;21840;44.920;8.616;2022-10-29T06:40:32;18.70;;;12.52;;
35715;SDS011;21840;44.920;8.616;2022-10-29T06:42:58;15.77;;;12.70;;
35715;SDS011;21840;44.920;8.616;2022-10-29T06:45:25;20.70;;;13.20;;
35715;SDS011;21840;44.920;8.616;2022-10-29T06:47:50;17.85;;;12.90;;
35715;SDS011;21840;44.920;8.616;2022-10-29T06:50:16;17.58;;;12.95;;
35715;SDS011;21840;44.920;8.616;2022-10-29T06:52:41;22.02;;;12.35;;
35715;SDS011;21840;44.920;8.616;2022-10-29T06:55:08;36.08;;;12.70;;
35715;SDS011;21840;44.920;8.616;2022-10-29T06:57:33;28.52;;;13.38;;
35715;SDS011;21840;44.920;8.616;2022-10-29T06:59:59;20.98;;;14.50;;
35715;SDS011;21840;44.920;8.616;2022-10-29T07:02:25;25.08;;;15.18;;
35715;SDS011;21840;44.920;8.616;2022-10-29T07:04:50;22.90;;;14.68;;
35715;SDS011;21840;44.920;8.616;2022-10-29T07:07:16;25.63;;;15.15;;
35715;SDS011;21840;44.920;8.616;2022-10-29T07:09:41;20.20;;;13.63;;
35715;SDS011;21840;44.920;8.616;2022-10-29T07:12:07;24.15;;;13.27;;
35715;SDS011;21840;44.920;8.616;2022-10-29T07:14:33;22.63;;;13.93;;
35715;SDS011;21840;44.920;8.616;2022-10-29T07:17:02;19.67;;;13.80;;
35715;SDS011;21840;44.920;8.616;2022-10-29T07:19:27;21.00;;;14.15;;
35715;SDS011;21840;44.920;8.616;2022-10-29T07:21:53;21.25;;;14.10;;
35715;SDS011;21840;44.920;8.616;2022-10-29T07:24:18;19.88;;;13.15;;
35715;SDS011;21840;44.920;8.616;2022-10-29T07:26:44;20.05;;;14.50;;
35715;SDS011;21840;44.920;8.616;2022-10-29T07:29:12;18.65;;;14.15;;
35715;SDS011;21840;44.920;8.616;2022-10-29T07:31:38;31.73;;;15.65;;
35715;SDS011;21840;44.920;8.616;2022-10-29T07:34:03;21.23;;;14.40;;
35715;SDS011;21840;44.920;8.616;2022-10-29T07:36:29;20.67;;;14.43;;
35715;SDS011;21840;44.920;8.616;2022-10-29T07:38:55;23.33;;;15.02;;
35715;SDS011;21840;44.920;8.616;2022-10-29T07:41:20;23.10;;;14.23;;
35715;SDS011;21840;44.920;8.616;2022-10-29T07:43:46;24.92;;;14.60;;
35715;SDS011;21840;44.920;8.616;2022-10-29T07:46:11;22.10;;;13.98;;
35715;SDS011;21840;44.920;8.616;2022-10-29T07:48:36;22.00;;;15.25;;
35715;SDS011;21840;44.920;8.616;2022-10-29T07:51:02;23.73;;;15.38;;
35715;SDS011;21840;44.920;8.616;2022-10-29T07:53:28;26.75;;;15.63;;
35715;SDS011;21840;44.920;8.616;2022-10-29T07:55:55;24.75;;;16.35;;
35715;SDS011;21840;44.920;8.616;2022-10-29T07:58:22;26.83;;;16.67;;
35715;SDS011;21840;44.920;8.616;2022-10-29T08:00:48;30.05;;;17.88;;
35715;SDS011;21840;44.920;8.616;2022-10-29T08:03:13;27.05;;;16.48;;
35715;SDS011;21840;44.920;8.616;2022-10-29T08:05:39;26.58;;;16.88;;
35715;SDS011;21840;44.920;8.616;2022-10-29T08:08:05;29.27;;;17.52;;
35715;SDS011;21840;44.920;8.616;2022-10-29T08:10:31;33.30;;;16.67;;
35715;SDS011;21840;44.920;8.616;2022-10-29T08:12:58;27.63;;;17.92;;
35715;SDS011;21840;44.920;8.616;2022-10-29T08:15:26;27.35;;;17.60;;
35715;SDS011;21840;44.920;8.616;2022-10-29T08:17:53;37.85;;;17.58;;
35715;SDS011;21840;44.920;8.616;2022-10-29T08:20:20;29.58;;;17.40;;
35715;SDS011;21840;44.920;8.616;2022-10-29T08:22:46;32.35;;;17.75;;
35715;SDS011;21840;44.920;8.616;2022-10-29T08:25:13;29.35;;;18.52;;
35715;SDS011;21840;44.920;8.616;2022-10-29T08:27:40;32.58;;;18.40;;
35715;SDS011;21840;44.920;8.616;2022-10-29T08:30:06;28.58;;;18.05;;
35715;SDS011;21840;44.920;8.616;2022-10-29T08:32:33;30.63;;;17.17;;
35715;SDS011;21840;44.920;8.616;2022-10-29T08:34:59;28.10;;;18.95;;
35715;SDS011;21840;44.920;8.616;2022-10-29T08:37:25;31.45;;;18.23;;
35715;SDS011;21840;44.920;8.616;2022-10-29T08:39:51;33.50;;;20.23;;
35715;SDS011;21840;44.920;8.616;2022-10-29T08:47:42;32.22;;;19.25;;
35715;SDS011;21840;44.920;8.616;2022-10-29T08:50:24;36.17;;;20.15;;
35715;SDS011;21840;44.920;8.616;2022-10-29T08:52:54;39.65;;;20.40;;
35715;SDS011;21840;44.920;8.616;2022-10-29T08:55:33;38.58;;;21.23;;
35715;SDS011;21840;44.920;8.616;2022-10-29T09:00:59;37.67;;;21.77;;
35715;SDS011;21840;44.920;8.616;2022-10-29T09:03:28;37.22;;;22.63;;
35715;SDS011;21840;44.920;8.616;2022-10-29T09:06:08;30.55;;;21.35;;
35715;SDS011;21840;44.920;8.616;2022-10-29T09:08:41;42.95;;;24.27;;
35715;SDS011;21840;44.920;8.616;2022-10-29T09:21:40;52.65;;;27.05;;
35715;SDS011;21840;44.920;8.616;2022-10-29T09:24:13;49.70;;;26.17;;
35715;SDS011;21840;44.920;8.616;2022-10-29T09:26:58;51.72;;;26.73;;
35715;SDS011;21840;44.920;8.616;2022-10-29T09:32:06;57.22;;;28.00;;
35715;SDS011;21840;44.920;8.616;2022-10-29T09:34:41;48.15;;;28.48;;
35715;SDS011;21840;44.920;8.616;2022-10-29T09:37:13;47.58;;;28.58;;
35715;SDS011;21840;44.920;8.616;2022-10-29T09:39:41;51.70;;;28.05;;
35715;SDS011;21840;44.920;8.616;2022-10-29T09:42:11;50.40;;;28.02;;
35715;SDS011;21840;44.920;8.616;2022-10-29T09:54:44;55.05;;;28.88;;
35715;SDS011;21840;44.920;8.616;2022-10-29T09:57:18;51.25;;;29.98;;
35715;SDS011;21840;44.920;8.616;2022-10-29T09:59:47;53.15;;;29.23;;
35715;SDS011;21840;44.920;8.616;2022-10-29T10:02:25;55.47;;;30.17;;
35715;SDS011;21840;44.920;8.616;2022-10-29T10:05:05;56.65;;;29.80;;
35715;SDS011;21840;44.920;8.616;2022-10-29T10:07:41;54.20;;;28.58;;
35715;SDS011;21840;44.920;8.616;2022-10-29T10:10:27;58.13;;;29.30;;
35715;SDS011;21840;44.920;8.616;2022-10-29T10:12:53;52.80;;;29.83;;
35715;SDS011;21840;44.920;8.616;2022-10-29T10:15:35;56.45;;;30.77;;
35715;SDS011;21840;44.920;8.616;2022-10-29T10:20:47;53.75;;;29.13;;
35715;SDS011;21840;44.920;8.616;2022-10-29T10:23:26;60.47;;;31.02;;
35715;SDS011;21840;44.920;8.616;2022-10-29T10:25:54;57.72;;;29.08;;
35715;SDS011;21840;44.920;8.616;2022-10-29T10:28:23;61.33;;;29.70;;
35715;SDS011;21840;44.920;8.616;2022-10-29T10:33:34;61.67;;;30.02;;
35715;SDS011;21840;44.920;8.616;2022-10-29T10:36:07;55.03;;;29.70;;
35715;SDS011;21840;44.920;8.616;2022-10-29T10:38:56;66.60;;;29.83;;
35715;SDS011;21840;44.920;8.616;2022-10-29T10:41:23;58.88;;;28.38;;
35715;SDS011;21840;44.920;8.616;2022-10-29T10:43:53;61.38;;;28.88;;
35715;SDS011;21840;44.920;8.616;2022-10-29T10:46:23;59.67;;;28.92;;
35715;SDS011;21840;44.920;8.616;2022-10-29T10:49:12;59.28;;;26.10;;
35715;SDS011;21840;44.920;8.616;2022-10-29T10:51:47;56.85;;;28.05;;
35715;SDS011;21840;44.920;8.616;2022-10-29T10:57:13;48.47;;;23.85;;
35715;SDS011;21840;44.920;8.616;2022-10-29T11:02:18;49.10;;;25.50;;
35715;SDS011;21840;44.920;8.616;2022-10-29T11:04:56;48.60;;;24.92;;
35715;SDS011;21840;44.920;8.616;2022-10-29T11:07:26;52.20;;;25.30;;
35715;SDS011;21840;44.920;8.616;2022-10-29T11:09:58;52.08;;;27.13;;
35715;SDS011;21840;44.920;8.616;2022-10-29T11:12:29;47.15;;;24.63;;
35715;SDS011;21840;44.920;8.616;2022-10-29T11:15:04;51.92;;;24.52;;
35715;SDS011;21840;44.920;8.616;2022-10-29T11:17:40;44.75;;;24.45;;
35715;SDS011;21840;44.920;8.616;2022-10-29T11:20:17;52.47;;;26.23;;
35715;SDS011;21840;44.920;8.616;2022-10-29T11:22:49;61.67;;;26.95;;
35715;SDS011;21840;44.920;8.616;2022-10-29T11:25:26;56.25;;;26.75;;
35715;SDS011;21840;44.920;8.616;2022-10-29T11:30:41;50.15;;;25.67;;
35715;SDS011;21840;44.920;8.616;2022-10-29T11:33:16;57.60;;;27.70;;
35715;SDS011;21840;44.920;8.616;2022-10-29T11:35:51;58.05;;;27.63;;
35715;SDS011;21840;44.920;8.616;2022-10-29T11:38:38;52.95;;;27.55;;
35715;SDS011;21840;44.920;8.616;2022-10-29T11:41:32;50.97;;;26.00;;
35715;SDS011;21840;44.920;8.616;2022-10-29T11:44:08;52.03;;;26.70;;
35715;SDS011;21840;44.920;8.616;2022-10-29T11:50:01;50.78;;;26.75;;
35715;SDS011;21840;44.920;8.616;2022-10-29T12:00:24;71.72;;;28.73;;
35715;SDS011;21840;44.920;8.616;2022-10-29T12:08:43;59.30;;;26.45;;
35715;SDS011;21840;44.920;8.616;2022-10-29T12:14:51;61.25;;;27.27;;
35715;SDS011;21840;44.920;8.616;2022-10-29T12:17:23;50.15;;;25.27;;
35715;SDS011;21840;44.920;8.616;2022-10-29T12:20:08;49.58;;;26.58;;
35715;SDS011;21840;44.920;8.616;2022-10-29T12:22:53;48.53;;;25.88;;
35715;SDS011;21840;44.920;8.616;2022-10-29T12:28:26;55.97;;;25.73;;
35715;SDS011;21840;44.920;8.616;2022-10-29T12:36:06;49.35;;;24.83;;
35715;SDS011;21840;44.920;8.616;2022-10-29T12:38:43;50.78;;;24.33;;
35715;SDS011;21840;44.920;8.616;2022-10-29T12:50:05;43.47;;;21.63;;
35715;SDS011;21840;44.920;8.616;2022-10-29T12:55:28;42.45;;;21.42;;
35715;SDS011;21840;44.920;8.616;2022-10-29T12:57:55;49.83;;;21.98;;
35715;SDS011;21840;44.920;8.616;2022-10-29T13:02:49;50.67;;;21.05;;
35715;SDS011;21840;44.920;8.616;2022-10-29T13:20:37;28.08;;;14.48;;
35715;SDS011;21840;44.920;8.616;2022-10-29T13:23:29;34.35;;;15.32;;
35715;SDS011;21840;44.920;8.616;2022-10-29T13:25:58;35.28;;;15.40;;
35715;SDS011;21840;44.920;8.616;2022-10-29T13:31:37;36.67;;;16.08;;
35715;SDS011;21840;44.920;8.616;2022-10-29T13:41:15;32.08;;;16.00;;
35715;SDS011;21840;44.920;8.616;2022-10-29T13:43:42;34.10;;;15.38;;
35715;SDS011;21840;44.920;8.616;2022-10-29T13:48:50;39.67;;;18.08;;
35715;SDS011;21840;44.920;8.616;2022-10-29T13:51:23;32.28;;;16.70;;
35715;SDS011;21840;44.920;8.616;2022-10-29T13:53:56;34.17;;;16.85;;
35715;SDS011;21840;44.920;8.616;2022-10-29T13:56:34;38.78;;;18.85;;
35715;SDS011;21840;44.920;8.616;2022-10-29T13:59:07;36.67;;;17.08;;
35715;SDS011;21840;44.920;8.616;2022-10-29T14:01:41;36.10;;;17.90;;
35715;SDS011;21840;44.920;8.616;2022-10-29T14:04:24;27.38;;;16.42;;
35715;SDS011;21840;44.920;8.616;2022-10-29T14:06:54;34.40;;;16.77;;
35715;SDS011;21840;44.920;8.616;2022-10-29T14:09:33;37.33;;;18.55;;
35715;SDS011;21840;44.920;8.616;2022-10-29T14:12:05;29.73;;;15.60;;
35715;SDS011;21840;44.920;8.616;2022-10-29T14:14:43;30.35;;;15.30;;
35715;SDS011;21840;44.920;8.616;2022-10-29T14:17:16;30.40;;;14.35;;
35715;SDS011;21840;44.920;8.616;2022-10-29T14:19:49;29.35;;;12.23;;
35715;SDS011;21840;44.920;8.616;2022-10-29T14:24:55;26.60;;;10.40;;
35715;SDS011;21840;44.920;8.616;2022-10-29T14:27:21;21.05;;;9.77;;
35715;SDS011;21840;44.920;8.616;2022-10-29T14:29:47;21.00;;;8.75;;
35715;SDS011;21840;44.920;8.616;2022-10-29T14:32:14;23.83;;;11.07;;
35715;SDS011;21840;44.920;8.616;2022-10-29T14:34:43;21.13;;;9.82;;
35715;SDS011;21840;44.920;8.616;2022-10-29T14:39:56;21.13;;;8.68;;
35715;SDS011;21840;44.920;8.616;2022-10-29T14:44:57;18.27;;;8.80;;
35715;SDS011;21840;44.920;8.616;2022-10-29T14:47:28;26.30;;;9.02;;
35715;SDS011;21840;44.920;8.616;2022-10-29T14:49:59;19.77;;;9.80;;
35715;SDS011;21840;44.920;8.616;2022-10-29T14:52:29;19.13;;;8.35;;
35715;SDS011;21840;44.920;8.616;2022-10-29T14:54:58;22.42;;;9.20;;
35715;SDS011;21840;44.920;8.616;2022-10-29T14:57:31;16.95;;;8.05;;
35715;SDS011;21840;44.920;8.616;2022-10-29T15:00:03;24.23;;;8.77;;
35715;SDS011;21840;44.920;8.616;2022-10-29T15:02:36;22.67;;;9.73;;
35715;SDS011;21840;44.920;8.616;2022-10-29T15:05:15;17.13;;;8.68;;
35715;SDS011;21840;44.920;8.616;2022-10-29T15:07:44;20.10;;;8.90;;
35715;SDS011;21840;44.920;8.616;2022-10-29T15:12:36;23.83;;;10.30;;
35715;SDS011;21840;44.920;8.616;2022-10-29T15:15:07;20.48;;;10.45;;
35715;SDS011;21840;44.920;8.616;2022-10-29T15:17:46;23.33;;;9.70;;
35715;SDS011;21840;44.920;8.616;2022-10-29T15:20:20;22.83;;;8.68;;
35715;SDS011;21840;44.920;8.616;2022-10-29T15:25:51;21.27;;;9.10;;
35715;SDS011;21840;44.920;8.616;2022-10-29T15:28:27;18.90;;;9.07;;
35715;SDS011;21840;44.920;8.616;2022-10-29T15:30:54;21.52;;;9.25;;
35715;SDS011;21840;44.920;8.616;2022-10-29T15:33:21;21.20;;;9.07;;
35715;SDS011;21840;44.920;8.616;2022-10-29T15:35:57;26.98;;;8.80;;
35715;SDS011;21840;44.920;8.616;2022-10-29T15:41:15;32.22;;;9.95;;
35715;SDS011;21840;44.920;8.616;2022-10-29T15:43:55;21.52;;;10.02;;
35715;SDS011;21840;44.920;8.616;2022-10-29T15:46:29;24.30;;;9.90;;
35715;SDS011;21840;44.920;8.616;2022-10-29T15:48:59;25.67;;;9.43;;
35715;SDS011;21840;44.920;8.616;2022-10-29T15:51:25;27.98;;;11.07;;
35715;SDS011;21840;44.920;8.616;2022-10-29T15:53:55;22.48;;;10.57;;
35715;SDS011;21840;44.920;8.616;2022-10-29T15:56:23;30.20;;;10.75;;
35715;SDS011;21840;44.920;8.616;2022-10-29T15:58:48;31.83;;;11.13;;
35715;SDS011;21840;44.920;8.616;2022-10-29T16:01:14;25.38;;;10.98;;
35715;SDS011;21840;44.920;8.616;2022-10-29T16:03:41;28.23;;;12.65;;
35715;SDS011;21840;44.920;8.616;2022-10-29T16:06:07;29.55;;;11.00;;
35715;SDS011;21840;44.920;8.616;2022-10-29T16:08:42;28.67;;;10.90;;
35715;SDS011;21840;44.920;8.616;2022-10-29T16:11:12;29.58;;;11.07;;
35715;SDS011;21840;44.920;8.616;2022-10-29T16:13:40;32.22;;;13.23;;
35715;SDS011;21840;44.920;8.616;2022-10-29T16:16:19;44.22;;;20.83;;
35715;SDS011;21840;44.920;8.616;2022-10-29T16:18:46;35.15;;;16.95;;
35715;SDS011;21840;44.920;8.616;2022-10-29T16:21:15;41.28;;;16.80;;
35715;SDS011;21840;44.920;8.616;2022-10-29T16:23:43;38.28;;;15.52;;
35715;SDS011;21840;44.920;8.616;2022-10-29T16:26:20;38.03;;;15.52;;
35715;SDS011;21840;44.920;8.616;2022-10-29T16:28:47;35.40;;;14.50;;
35715;SDS011;21840;44.920;8.616;2022-10-29T16:31:16;29.15;;;13.10;;
35715;SDS011;21840;44.920;8.616;2022-10-29T16:33:50;34.00;;;13.07;;
35715;SDS011;21840;44.920;8.616;2022-10-29T16:36:17;28.98;;;11.75;;
35715;SDS011;21840;44.920;8.616;2022-10-29T16:38:43;26.90;;;11.95;;
35715;SDS011;21840;44.920;8.616;2022-10-29T16:41:10;33.45;;;12.13;;
35715;SDS011;21840;44.920;8.616;2022-10-29T16:43:37;26.75;;;11.30;;
35715;SDS011;21840;44.920;8.616;2022-10-29T16:46:03;30.55;;;10.88;;
35715;SDS011;21840;44.920;8.616;2022-10-29T16:48:29;37.20;;;11.63;;
35715;SDS011;21840;44.920;8.616;2022-10-29T16:50:54;34.53;;;10.85;;
35715;SDS011;21840;44.920;8.616;2022-10-29T16:53:19;35.70;;;10.32;;
35715;SDS011;21840;44.920;8.616;2022-10-29T16:55:45;24.70;;;10.57;;
35715;SDS011;21840;44.920;8.616;2022-10-29T16:58:11;28.85;;;11.00;;
35715;SDS011;21840;44.920;8.616;2022-10-29T17:00:37;32.85;;;10.45;;
35715;SDS011;21840;44.920;8.616;2022-10-29T17:03:03;27.45;;;11.27;;
35715;SDS011;21840;44.920;8.616;2022-10-29T17:05:33;25.38;;;10.02;;
35715;SDS011;21840;44.920;8.616;2022-10-29T17:07:59;29.40;;;10.40;;
35715;SDS011;21840;44.920;8.616;2022-10-29T17:10:25;32.35;;;11.20;;
35715;SDS011;21840;44.920;8.616;2022-10-29T17:12:50;32.83;;;11.93;;
35715;SDS011;21840;44.920;8.616;2022-10-29T17:15:15;50.40;;;11.48;;